Time;durP1;ratioP1;P1;durP2;ratioP2;P2;SDS_P1;SDS_P2;PMS_P1;PMS_P2;Temp;Humidity;BMP_temperature;BMP_pressure;BME280_temperature;BME280_humidity;BME280_pressure;Samples;Min_cycle;Max_cycle;Signal;HPM_P1;HPM_P2
2022/11/23 00:01:17;;;;;;;3.50;1.20;;;20.20;1.00;;;;;;4823063;29;20471;-36
2022/11/23 00:07:56;;;;;;;3.13;0.93;;;20.10;1.00;;;;;;4822797;29;20037;-36
2022/11/23 00:10:23;;;;;;;2.50;1.15;;;20.00;1.00;;;;;;4822856;29;20140;-36
2022/11/23 00:12:50;;;;;;;3.35;1.27;;;19.90;1.00;;;;;;4822451;29;20130;-36
2022/11/23 00:15:16;;;;;;;1.95;1.10;;;19.90;1.00;;;;;;4823013;29;20137;-37
2022/11/23 00:17:47;;;;;;;2.30;1.00;;;19.80;1.00;;;;;;4822877;29;20062;-36
2022/11/23 00:20:13;;;;;;;3.58;1.33;;;19.80;1.00;;;;;;4826008;29;20125;-36
2022/11/23 00:22:40;;;;;;;2.78;1.20;;;19.70;1.00;;;;;;4826206;29;20471;-36
2022/11/23 00:25:07;;;;;;;2.03;0.77;;;19.70;1.00;;;;;;4826073;29;20418;-36
2022/11/23 00:27:34;;;;;;;2.45;0.90;;;19.60;1.00;;;;;;4826100;29;20102;-36
2022/11/23 00:30:01;;;;;;;3.00;0.88;;;19.60;1.00;;;;;;4809922;29;20054;-36
2022/11/23 00:32:30;;;;;;;2.38;1.02;;;19.50;1.00;;;;;;4825689;29;20058;-36
2022/11/23 00:34:57;;;;;;;1.95;1.38;;;19.50;1.00;;;;;;4809923;29;20234;-36
2022/11/23 00:37:24;;;;;;;1.98;1.00;;;19.40;1.00;;;;;;4825814;29;20422;-36
2022/11/23 00:39:53;;;;;;;2.70;1.13;;;19.40;1.00;;;;;;4809584;29;20053;-36
2022/11/23 00:42:19;;;;;;;3.13;1.58;;;19.30;1.00;;;;;;4825771;29;20047;-36
2022/11/23 00:44:46;;;;;;;1.92;0.80;;;19.30;1.00;;;;;;4809622;29;20049;-36
2022/11/23 00:47:13;;;;;;;3.00;1.55;;;19.20;1.00;;;;;;4809296;29;20055;-36
2022/11/23 00:49:39;;;;;;;3.05;1.58;;;19.20;1.00;;;;;;4809337;29;20111;-36
2022/11/23 00:52:06;;;;;;;1.70;0.80;;;19.10;1.00;;;;;;4825545;29;20575;-36
2022/11/23 00:54:33;;;;;;;3.58;1.35;;;19.10;1.00;;;;;;4809232;29;20089;-36
2022/11/23 00:57:00;;;;;;;2.30;1.17;;;19.00;1.00;;;;;;4809295;29;20089;-36
2022/11/23 00:59:28;;;;;;;1.80;0.85;;;19.00;1.00;;;;;;4809218;29;20057;-37
2022/11/23 01:01:55;;;;;;;4.72;1.25;;;19.00;1.00;;;;;;4809188;29;20097;-36
2022/11/23 01:04:22;;;;;;;4.25;1.10;;;18.90;1.00;;;;;;4809025;29;20057;-36
2022/11/23 01:06:49;;;;;;;3.55;1.05;;;18.90;1.00;;;;;;4809064;29;20082;-36
2022/11/23 01:09:17;;;;;;;3.45;0.88;;;18.90;1.00;;;;;;4809137;29;20646;-36
2022/11/23 01:11:44;;;;;;;3.10;1.10;;;18.80;1.00;;;;;;4809000;29;20415;-36
2022/11/23 01:14:12;;;;;;;3.90;1.48;;;18.80;1.00;;;;;;4808940;29;20061;-37
2022/11/23 01:16:40;;;;;;;2.00;0.80;;;18.70;1.00;;;;;;4825265;29;20046;-36
2022/11/23 01:19:11;;;;;;;2.28;1.10;;;18.70;1.00;;;;;;4825179;29;20046;-36
2022/11/23 01:21:38;;;;;;;2.67;1.23;;;18.70;1.00;;;;;;4825254;29;20121;-36
2022/11/23 01:24:08;;;;;;;2.17;1.05;;;18.60;1.00;;;;;;4824982;29;20280;-36
2022/11/23 01:26:37;;;;;;;2.70;1.13;;;18.60;1.00;;;;;;4793961;29;20070;-36
2022/11/23 01:29:04;;;;;;;1.20;0.90;;;18.60;1.00;;;;;;4809006;29;20057;-36
2022/11/23 01:31:31;;;;;;;3.03;0.95;;;18.50;1.00;;;;;;4808115;29;20062;-36
2022/11/23 01:34:00;;;;;;;4.45;0.80;;;18.50;1.00;;;;;;4824653;29;20054;-36
2022/11/23 01:36:30;;;;;;;1.83;0.70;;;18.50;1.00;;;;;;4808486;29;20549;-36
2022/11/23 01:38:59;;;;;;;2.30;0.73;;;18.40;1.00;;;;;;4808660;29;20150;-36
2022/11/23 01:41:28;;;;;;;2.03;0.95;;;18.40;1.00;;;;;;4824969;29;20088;-36
2022/11/23 01:43:55;;;;;;;1.63;0.93;;;18.40;1.00;;;;;;4793327;29;20058;-36
2022/11/23 01:46:24;;;;;;;2.58;0.90;;;18.30;1.00;;;;;;4808296;29;20042;-36
2022/11/23 01:49:02;;;;;;;1.52;0.80;;;18.30;1.00;;;;;;4808502;29;20054;-36
2022/11/23 01:51:37;;;;;;;2.90;0.80;;;18.30;1.00;;;;;;4808458;29;20050;-36
2022/11/23 01:54:09;;;;;;;4.57;1.08;;;18.20;1.00;;;;;;4808155;29;20491;-36
2022/11/23 01:56:40;;;;;;;1.50;1.00;;;18.20;1.00;;;;;;4793389;29;20066;-36
2022/11/23 01:59:12;;;;;;;2.35;0.98;;;18.20;1.00;;;;;;4808320;29;20567;-36
2022/11/23 02:01:38;;;;;;;2.08;0.68;;;18.20;1.00;;;;;;4808452;29;20122;-36
2022/11/23 02:04:09;;;;;;;1.80;0.93;;;18.10;1.00;;;;;;4807956;29;20499;-36
2022/11/23 02:06:45;;;;;;;1.52;0.60;;;18.10;1.00;;;;;;4808195;29;20046;-36
2022/11/23 02:09:12;;;;;;;2.42;1.00;;;18.10;1.00;;;;;;4808252;29;20502;-36
2022/11/23 02:11:40;;;;;;;3.17;1.00;;;18.00;1.00;;;;;;4808157;29;20115;-35
2022/11/23 02:14:11;;;;;;;4.15;1.35;;;18.00;1.00;;;;;;4807820;29;20077;-36
2022/11/23 02:16:38;;;;;;;2.65;1.08;;;18.00;1.00;;;;;;4808027;29;20522;-35
2022/11/23 02:19:12;;;;;;;3.10;1.10;;;18.00;1.00;;;;;;4824309;29;20133;-36
2022/11/23 02:21:41;;;;;;;1.17;0.70;;;17.90;1.00;;;;;;4824285;29;20046;-36
2022/11/23 02:24:29;;;;;;;1.65;0.85;;;17.90;1.00;;;;;;4807653;29;20042;-36
2022/11/23 02:26:56;;;;;;;2.60;0.68;;;17.90;1.00;;;;;;4807729;29;20507;-36
2022/11/23 02:29:27;;;;;;;3.05;1.00;;;17.90;1.00;;;;;;4807881;29;20490;-36
2022/11/23 02:31:54;;;;;;;2.38;0.98;;;17.90;1.00;;;;;;4807774;29;20054;-36
2022/11/23 02:34:23;;;;;;;1.25;0.70;;;17.80;1.00;;;;;;4807485;29;20145;-36
2022/11/23 02:36:56;;;;;;;3.00;1.00;;;17.80;1.00;;;;;;4807545;29;20058;-36
2022/11/23 02:39:29;;;;;;;4.95;0.90;;;17.80;1.00;;;;;;4823876;29;20057;-36
2022/11/23 02:41:56;;;;;;;;;;;17.80;1.00;;;;;;4807064;29;20054;-36
2022/11/23 02:44:32;;;;;;;4.00;1.48;;;17.70;1.00;;;;;;4807266;29;19924;-36
2022/11/23 02:46:59;;;;;;;3.58;1.25;;;17.70;1.00;;;;;;4807348;29;20137;-36
2022/11/23 02:49:27;;;;;;;3.05;0.80;;;17.70;1.00;;;;;;4807476;29;20068;-36
2022/11/23 02:51:54;;;;;;;3.33;0.90;;;17.70;1.00;;;;;;4807566;29;20050;-36
2022/11/23 02:54:24;;;;;;;2.95;1.17;;;17.60;1.00;;;;;;4807158;29;20054;-36
2022/11/23 02:56:50;;;;;;;1.77;0.77;;;17.60;1.00;;;;;;4807357;29;20149;-36
2022/11/23 02:59:18;;;;;;;1.83;1.10;;;17.60;1.00;;;;;;4807121;29;20049;-36
2022/11/23 03:01:45;;;;;;;1.88;0.80;;;17.60;1.00;;;;;;4807212;29;20055;-36
2022/11/23 03:04:13;;;;;;;1.88;0.98;;;17.50;1.00;;;;;;4823508;29;20107;-36
2022/11/23 03:06:40;;;;;;;4.03;1.30;;;17.50;1.00;;;;;;4807159;29;20042;-36
2022/11/23 03:09:07;;;;;;;3.03;1.20;;;17.50;1.00;;;;;;4807082;29;20054;-36
2022/11/23 03:11:34;;;;;;;4.28;1.25;;;17.50;1.00;;;;;;4823455;29;20062;-36
2022/11/23 03:14:02;;;;;;;2.58;1.10;;;17.50;1.00;;;;;;4822352;29;20499;-36
2022/11/23 03:16:33;;;;;;;1.88;0.82;;;17.40;1.00;;;;;;4811604;29;20054;-36
2022/11/23 03:19:00;;;;;;;2.90;1.38;;;17.40;1.00;;;;;;4818623;29;20045;-36
2022/11/23 03:21:27;;;;;;;2.20;1.15;;;17.50;1.00;;;;;;4822078;29;20077;-36
2022/11/23 03:23:54;;;;;;;1.83;0.98;;;17.40;1.00;;;;;;4824912;29;20128;-36
2022/11/23 03:26:21;;;;;;;1.65;0.90;;;17.40;1.00;;;;;;4818383;29;20053;-36
2022/11/23 03:28:57;;;;;;;3.83;1.38;;;17.40;1.00;;;;;;4825064;29;20077;-36
2022/11/23 03:31:27;;;;;;;1.85;0.93;;;17.40;1.00;;;;;;4825129;29;20049;-36
2022/11/23 03:33:54;;;;;;;3.10;0.85;;;17.40;1.00;;;;;;4824794;29;20052;-36
2022/11/23 03:36:22;;;;;;;3.03;1.08;;;17.30;1.00;;;;;;4824978;29;20054;-36
2022/11/23 03:38:49;;;;;;;4.88;1.48;;;17.30;1.00;;;;;;4824921;29;20056;-35
2022/11/23 03:41:40;;;;;;;4.97;1.42;;;17.30;1.00;;;;;;4825009;29;20046;-36
2022/11/23 03:44:07;;;;;;;2.30;0.90;;;17.20;1.00;;;;;;4824759;29;20438;-36
2022/11/23 03:46:34;;;;;;;1.67;1.20;;;17.20;1.00;;;;;;4824752;29;20046;-36
2022/11/23 03:49:01;;;;;;;3.38;1.63;;;17.20;1.00;;;;;;4824945;29;20050;-36
2022/11/23 03:51:28;;;;;;;1.80;1.10;;;17.20;1.00;;;;;;4809793;29;20069;-35
2022/11/23 03:53:54;;;;;;;4.45;1.08;;;17.20;1.00;;;;;;4824182;29;20058;-35
2022/11/23 03:56:21;;;;;;;3.88;1.85;;;17.20;1.00;;;;;;4824797;29;20136;-36
2022/11/23 03:58:48;;;;;;;3.25;1.33;;;17.20;1.00;;;;;;4824864;29;20054;-36
2022/11/23 04:01:15;;;;;;;1.75;1.05;;;17.10;1.00;;;;;;4824634;29;20045;-36
2022/11/23 04:03:45;;;;;;;1.48;0.82;;;17.20;1.00;;;;;;4824393;29;20079;-36
2022/11/23 04:06:16;;;;;;;2.67;1.02;;;17.10;1.00;;;;;;4824759;29;20507;-36
2022/11/23 04:09:18;;;;;;;5.25;1.63;;;17.10;1.00;;;;;;4833906;29;20524;-36
2022/11/23 04:12:09;;;;;;;3.13;1.23;;;17.10;1.00;;;;;;4840294;29;20106;-36
2022/11/23 04:14:37;;;;;;;3.75;1.40;;;17.10;1.00;;;;;;4824512;29;20065;-35
2022/11/23 04:17:04;;;;;;;4.82;2.05;;;17.10;1.00;;;;;;4824569;29;20045;-36
2022/11/23 04:19:31;;;;;;;1.45;0.98;;;17.10;1.00;;;;;;4824559;29;20042;-36
2022/11/23 04:21:59;;;;;;;4.60;1.40;;;17.00;1.00;;;;;;4840965;29;20068;-36
2022/11/23 04:24:29;;;;;;;3.25;1.08;;;17.00;1.00;;;;;;4824245;29;20053;-35
2022/11/23 04:26:58;;;;;;;2.92;1.42;;;17.00;1.00;;;;;;4824431;29;20053;-35
2022/11/23 04:29:25;;;;;;;3.17;1.33;;;17.00;1.00;;;;;;4840912;29;20046;-36
2022/11/23 04:31:53;;;;;;;3.05;1.27;;;17.00;1.00;;;;;;4824431;29;20050;-36
2022/11/23 04:34:20;;;;;;;4.57;1.60;;;16.90;1.00;;;;;;4824236;29;20046;-35
2022/11/23 04:36:49;;;;;;;1.95;1.30;;;16.90;1.00;;;;;;4824395;29;20081;-36
2022/11/23 04:39:18;;;;;;;4.00;1.00;;;16.90;1.00;;;;;;4824362;29;20666;-36
2022/11/23 04:42:18;;;;;;;2.75;1.30;;;16.90;1.00;;;;;;4839206;29;20060;-36
2022/11/23 04:44:52;;;;;;;3.90;1.10;;;16.90;1.00;;;;;;4824427;29;20050;-36
2022/11/23 04:47:19;;;;;;;2.65;1.33;;;16.80;1.00;;;;;;4824121;29;20045;-36
2022/11/23 04:49:47;;;;;;;5.85;1.05;;;16.90;1.00;;;;;;4824206;29;20054;-36
2022/11/23 04:52:14;;;;;;;3.90;1.58;;;16.80;1.00;;;;;;4840577;29;20064;-36
2022/11/23 04:54:45;;;;;;;2.92;1.25;;;16.90;1.00;;;;;;4824346;29;20056;-36
2022/11/23 04:57:12;;;;;;;5.30;1.65;;;16.90;1.00;;;;;;4824169;29;20064;-36
2022/11/23 04:59:39;;;;;;;2.10;1.40;;;16.80;1.00;;;;;;4824075;29;20066;-35
2022/11/23 05:02:06;;;;;;;5.45;1.65;;;16.80;1.00;;;;;;4823992;29;20046;-36
2022/11/23 05:04:44;;;;;;;3.10;1.30;;;16.80;1.00;;;;;;4824274;29;20050;-35
2022/11/23 05:07:12;;;;;;;3.80;1.35;;;16.80;1.00;;;;;;4826994;29;20066;-35
2022/11/23 05:09:42;;;;;;;2.80;1.20;;;16.70;1.00;;;;;;4821226;29;20073;-36
2022/11/23 05:12:16;;;;;;;3.28;1.80;;;16.70;1.00;;;;;;4822104;29;20042;-36
2022/11/23 05:14:43;;;;;;;3.58;1.17;;;16.70;1.00;;;;;;4825207;29;20137;-36
2022/11/23 05:17:12;;;;;;;4.30;1.95;;;16.70;1.00;;;;;;4827078;29;20110;-35
2022/11/23 05:19:40;;;;;;;2.80;1.33;;;16.70;1.00;;;;;;4827165;29;20046;-35
2022/11/23 05:22:07;;;;;;;3.50;1.98;;;16.70;1.00;;;;;;4827049;29;20537;-35
2022/11/23 05:24:36;;;;;;;2.25;1.08;;;16.70;1.00;;;;;;4826875;29;20046;-35
2022/11/23 05:27:07;;;;;;;25.58;2.08;;;16.70;1.00;;;;;;4826424;29;20487;-35
2022/11/23 05:29:35;;;;;;;4.25;1.30;;;16.70;1.00;;;;;;4822570;29;20050;-35
2022/11/23 05:32:04;;;;;;;3.50;1.95;;;16.70;1.00;;;;;;4825240;29;20577;-35
2022/11/23 05:34:30;;;;;;;4.47;1.25;;;16.70;1.00;;;;;;4826540;29;20050;-35
2022/11/23 05:36:58;;;;;;;3.00;1.05;;;16.60;1.00;;;;;;4824126;29;20066;-35
2022/11/23 05:39:25;;;;;;;15.68;2.55;;;16.70;1.00;;;;;;4825084;29;20050;-36
2022/11/23 05:41:53;;;;;;;5.13;1.73;;;16.60;1.00;;;;;;4824854;29;20054;-36
2022/11/23 05:44:37;;;;;;;4.22;1.95;;;16.60;1.00;;;;;;4825005;29;20152;-36
2022/11/23 05:47:07;;;;;;;7.07;1.90;;;16.60;1.00;;;;;;4820940;24;20047;-37
2022/11/23 05:49:35;;;;;;;5.40;1.80;;;16.60;1.00;;;;;;4793794;29;20449;-37
2022/11/23 05:52:03;;;;;;;4.53;1.30;;;16.60;1.00;;;;;;4804493;29;20086;-37
2022/11/23 05:54:31;;;;;;;4.47;1.65;;;16.60;1.00;;;;;;4793173;29;20387;-37
2022/11/23 05:57:03;;;;;;;6.82;1.73;;;16.50;1.00;;;;;;4813765;29;20061;-37
2022/11/23 05:59:40;;;;;;;4.75;1.65;;;16.50;1.00;;;;;;4793084;29;20083;-37
2022/11/23 06:02:11;;;;;;;4.85;1.83;;;16.50;1.00;;;;;;4801801;29;20073;-37
2022/11/23 06:04:37;;;;;;;3.70;1.92;;;16.50;1.00;;;;;;4802899;29;20046;-37
2022/11/23 06:07:08;;;;;;;3.80;1.85;;;16.50;1.00;;;;;;4806467;29;20128;-38
2022/11/23 06:09:50;;;;;;;5.88;1.70;;;16.50;1.00;;;;;;4806780;29;20042;-37
2022/11/23 06:12:17;;;;;;;2.83;1.88;;;16.50;1.00;;;;;;4806487;29;20418;-37
2022/11/23 06:14:44;;;;;;;5.55;2.25;;;16.50;1.00;;;;;;4821832;29;20103;-37
2022/11/23 06:17:13;;;;;;;5.05;2.20;;;16.40;1.00;;;;;;4806196;29;20062;-37
2022/11/23 06:19:43;;;;;;;4.72;2.00;;;16.40;1.00;;;;;;4806513;29;20042;-38
2022/11/23 06:22:11;;;;;;;5.03;1.90;;;16.40;1.00;;;;;;4807628;29;20510;-38
2022/11/23 06:24:46;;;;;;;4.13;2.00;;;16.40;1.00;;;;;;4823144;29;20061;-37
2022/11/23 06:27:36;;;;;;;5.57;1.73;;;16.40;1.00;;;;;;4807712;29;20058;-37
2022/11/23 06:30:12;;;;;;;2.67;2.05;;;16.40;1.00;;;;;;4807908;29;20107;-37
2022/11/23 06:32:40;;;;;;;4.05;1.77;;;16.40;1.00;;;;;;4822735;29;20085;-37
2022/11/23 06:35:08;;;;;;;3.70;1.80;;;16.40;1.00;;;;;;4807982;29;20050;-37
2022/11/23 06:37:38;;;;;;;8.15;2.60;;;16.40;1.00;;;;;;4822887;29;20514;-37
2022/11/23 06:40:06;;;;;;;6.97;2.13;;;16.30;1.00;;;;;;4822615;29;20582;-37
2022/11/23 06:42:33;;;;;;;5.88;2.53;;;16.30;1.00;;;;;;4822612;29;20106;-37
2022/11/23 06:45:12;;;;;;;8.13;2.13;;;16.30;1.00;;;;;;4807553;29;20099;-36
2022/11/23 06:47:39;;;;;;;4.13;1.77;;;16.30;1.00;;;;;;4807370;29;20050;-37
2022/11/23 06:50:08;;;;;;;5.53;1.38;;;16.30;1.00;;;;;;4823997;29;20421;-37
2022/11/23 06:52:36;;;;;;;3.53;1.80;;;16.30;1.00;;;;;;4807024;29;20103;-37
2022/11/23 06:55:03;;;;;;;5.07;1.90;;;16.30;1.00;;;;;;4807423;29;20055;-37
2022/11/23 06:57:30;;;;;;;4.32;1.75;;;16.30;1.00;;;;;;4822557;29;20081;-37
2022/11/23 06:59:57;;;;;;;6.18;2.10;;;16.30;1.00;;;;;;4823753;29;20099;-37
2022/11/23 07:02:30;;;;;;;5.68;2.20;;;16.30;1.00;;;;;;4807006;29;20043;-37
2022/11/23 07:04:58;;;;;;;7.22;2.13;;;16.20;1.00;;;;;;4822459;29;20042;-37
2022/11/23 07:07:26;;;;;;;4.63;1.58;;;16.20;1.00;;;;;;4807157;29;20042;-37
2022/11/23 07:10:07;;;;;;;3.78;1.98;;;16.20;1.00;;;;;;4807168;29;20055;-37
2022/11/23 07:12:45;;;;;;;5.28;1.92;;;16.20;1.00;;;;;;4806927;29;20054;-38
2022/11/23 07:15:14;;;;;;;2.83;1.77;;;16.20;1.00;;;;;;4807094;29;20403;-37
2022/11/23 07:17:43;;;;;;;3.58;2.30;;;16.20;1.00;;;;;;4806937;29;20054;-37
2022/11/23 07:20:11;;;;;;;4.82;1.75;;;16.20;1.00;;;;;;4806597;29;20051;-37
2022/11/23 07:22:38;;;;;;;4.88;2.03;;;16.20;1.00;;;;;;4822621;29;20047;-37
2022/11/23 07:25:06;;;;;;;2.92;1.65;;;16.20;1.00;;;;;;4822033;29;20095;-37
2022/11/23 07:27:33;;;;;;;3.83;2.13;;;16.20;1.00;;;;;;4818261;29;20053;-38
2022/11/23 07:30:01;;;;;;;5.05;1.83;;;16.10;1.00;;;;;;4821179;29;20498;-37
2022/11/23 07:32:29;;;;;;;3.15;1.48;;;16.10;1.00;;;;;;4806499;29;20046;-37
2022/11/23 07:34:56;;;;;;;2.63;1.48;;;16.10;1.00;;;;;;4791613;29;20047;-37
2022/11/23 07:37:24;;;;;;;5.43;2.60;;;16.10;1.00;;;;;;4791730;29;20526;-37
2022/11/23 07:39:51;;;;;;;5.75;1.90;;;16.10;1.00;;;;;;4806693;29;20053;-37
2022/11/23 07:42:25;;;;;;;6.53;2.03;;;16.10;1.00;;;;;;4806264;29;20464;-37
2022/11/23 07:45:08;;;;;;;4.15;2.22;;;16.10;1.00;;;;;;4823150;29;20039;-37
2022/11/23 07:47:37;;;;;;;3.72;1.90;;;16.10;1.00;;;;;;4821714;29;20046;-37
2022/11/23 07:50:10;;;;;;;8.80;2.00;;;16.10;1.00;;;;;;4823132;29;20047;-37
2022/11/23 07:52:38;;;;;;;4.10;2.42;;;16.10;1.00;;;;;;4822820;29;20053;-37
2022/11/23 07:55:05;;;;;;;3.88;1.90;;;16.10;1.00;;;;;;4822744;29;20068;-44
2022/11/23 07:57:33;;;;;;;2.78;1.50;;;16.00;1.00;;;;;;4823086;29;20053;-37
2022/11/23 07:59:59;;;;;;;2.63;1.70;;;16.00;1.00;;;;;;4823010;29;20042;-37
2022/11/23 08:02:26;;;;;;;4.38;2.28;;;16.00;1.00;;;;;;4821538;29;20414;-37
2022/11/23 08:04:54;;;;;;;3.80;1.67;;;16.00;1.00;;;;;;4823025;29;20118;-38
2022/11/23 08:07:21;;;;;;;2.50;1.58;;;16.00;1.00;;;;;;4822829;29;20075;-37
2022/11/23 08:09:47;;;;;;;5.10;2.08;;;16.00;1.00;;;;;;4822773;29;20050;-37
2022/11/23 08:12:14;;;;;;;4.93;2.13;;;16.00;1.00;;;;;;4822684;29;20129;-37
2022/11/23 08:14:41;;;;;;;4.35;2.00;;;16.00;1.00;;;;;;4822859;29;20055;-37
2022/11/23 08:17:08;;;;;;;4.20;1.98;;;16.00;1.00;;;;;;4822688;29;20050;-37
2022/11/23 08:19:34;;;;;;;2.95;1.63;;;16.00;1.00;;;;;;4822732;29;20103;-37
2022/11/23 08:22:01;;;;;;;3.35;2.47;;;16.00;1.00;;;;;;4822540;29;20468;-37
2022/11/23 08:24:28;;;;;;;3.42;1.70;;;16.00;1.00;;;;;;4822416;29;20463;-37
2022/11/23 08:26:55;;;;;;;2.50;1.58;;;15.90;1.00;;;;;;4822563;29;20472;-37
2022/11/23 08:29:22;;;;;;;4.72;1.65;;;15.90;1.00;;;;;;4822712;29;20456;-37
2022/11/23 08:31:49;;;;;;;4.43;2.00;;;15.90;1.00;;;;;;4822767;29;20111;-37
2022/11/23 08:34:17;;;;;;;4.25;2.22;;;15.90;1.00;;;;;;4822372;29;20050;-37
2022/11/23 08:36:44;;;;;;;2.60;1.33;;;15.90;1.00;;;;;;4822358;29;20058;-37
2022/11/23 08:39:13;;;;;;;3.38;1.85;;;15.90;1.00;;;;;;4823020;29;20047;-37
2022/11/23 08:41:40;;;;;;;5.25;1.92;;;15.90;1.00;;;;;;4825895;29;20050;-37
2022/11/23 08:44:09;;;;;;;3.30;1.52;;;15.90;1.00;;;;;;4825585;29;20051;-37
2022/11/23 08:46:37;;;;;;;3.15;1.58;;;15.90;1.00;;;;;;4825851;29;20097;-37
2022/11/23 08:49:05;;;;;;;3.40;1.92;;;15.80;1.00;;;;;;4825654;29;20061;-37
2022/11/23 08:51:32;;;;;;;5.20;1.67;;;15.90;1.00;;;;;;4825853;29;20058;-37
2022/11/23 08:53:58;;;;;;;2.90;1.77;;;15.90;1.00;;;;;;4825404;29;20129;-37
2022/11/23 08:56:25;;;;;;;5.47;1.75;;;15.90;1.00;;;;;;4825608;29;20502;-37
2022/11/23 08:58:52;;;;;;;5.10;2.30;;;15.90;1.00;;;;;;4825617;29;20046;-37
2022/11/23 09:01:19;;;;;;;3.70;1.90;;;15.90;1.00;;;;;;4825530;29;20050;-37
2022/11/23 09:03:45;;;;;;;4.80;2.17;;;15.80;1.00;;;;;;4825077;29;20050;-37
2022/11/23 09:06:12;;;;;;;3.95;1.60;;;15.80;1.00;;;;;;4825459;29;20039;-37
2022/11/23 09:08:39;;;;;;;5.53;1.80;;;15.80;1.00;;;;;;4825532;29;20058;-37
2022/11/23 09:11:08;;;;;;;2.47;1.70;;;15.80;1.00;;;;;;4825429;29;20464;-37
2022/11/23 09:13:36;;;;;;;3.22;2.03;;;15.80;1.00;;;;;;4825122;29;20137;-37
2022/11/23 09:16:04;;;;;;;3.17;1.77;;;15.80;1.00;;;;;;4825272;29;20055;-37
2022/11/23 09:18:32;;;;;;;2.92;2.00;;;15.80;1.00;;;;;;4825220;29;20138;-37
2022/11/23 09:21:03;;;;;;;6.13;1.58;;;15.80;1.00;;;;;;4825262;29;20042;-37
2022/11/23 09:23:30;;;;;;;3.88;1.77;;;15.80;1.00;;;;;;4824964;29;20042;-37
2022/11/23 09:25:58;;;;;;;2.95;2.08;;;15.80;1.00;;;;;;4809029;29;20047;-37
2022/11/23 09:28:27;;;;;;;3.67;1.75;;;15.80;1.00;;;;;;4825233;29;20383;-37
2022/11/23 09:30:55;;;;;;;3.97;1.80;;;15.80;1.00;;;;;;4824948;29;20057;-37
2022/11/23 09:33:23;;;;;;;5.05;1.67;;;15.80;1.00;;;;;;4824606;29;20521;-37
2022/11/23 09:36:00;;;;;;;4.03;1.77;;;15.80;1.00;;;;;;4825005;29;20498;-37
2022/11/23 09:38:27;;;;;;;4.65;1.42;;;15.80;1.00;;;;;;4824827;29;20091;-37
2022/11/23 09:41:39;;;;;;;2.85;1.52;;;15.80;1.00;;;;;;4824867;29;20054;-37
2022/11/23 09:44:37;;;;;;;4.40;1.25;;;15.70;1.00;;;;;;4824900;29;20050;-37
2022/11/23 09:47:50;;;;;;;4.68;1.60;;;15.70;1.00;;;;;;4824685;29;20061;-37
2022/11/23 09:50:21;;;;;;;2.75;1.52;;;15.70;1.00;;;;;;4825033;29;20081;-37
2022/11/23 09:52:49;;;;;;;4.35;1.52;;;15.70;1.00;;;;;;4823975;29;20125;-37
2022/11/23 09:55:29;;;;;;;3.08;1.38;;;15.70;1.00;;;;;;4824715;29;20088;-37
2022/11/23 09:58:01;;;;;;;2.08;1.45;;;15.70;1.00;;;;;;4824557;29;20050;-37
2022/11/23 10:00:34;;;;;;;4.07;1.40;;;15.70;1.00;;;;;;4824694;29;20055;-37
2022/11/23 10:03:01;;;;;;;2.72;1.15;;;15.70;1.00;;;;;;4824397;29;20077;-37
2022/11/23 10:05:34;;;;;;;2.03;1.20;;;15.70;1.00;;;;;;4824464;29;20125;-37
2022/11/23 10:08:05;;;;;;;2.88;1.20;;;15.70;1.00;;;;;;4824477;29;20047;-37
2022/11/23 10:10:54;;;;;;;2.83;1.30;;;15.70;1.00;;;;;;4824504;29;20042;-37
2022/11/23 10:13:30;;;;;;;3.65;1.40;;;15.70;1.00;;;;;;4824190;29;20126;-37
2022/11/23 10:16:17;;;;;;;5.10;1.88;;;15.70;1.00;;;;;;4824499;29;20053;-37
2022/11/23 10:18:53;;;;;;;4.40;1.05;;;15.70;1.00;;;;;;4823028;29;20050;-37
2022/11/23 10:22:02;;;;;;;1.73;0.88;;;15.70;1.00;;;;;;4824255;29;20042;-37
2022/11/23 10:24:37;;;;;;;2.10;1.23;;;15.80;1.00;;;;;;4802928;29;20417;-37
2022/11/23 10:27:11;;;;;;;9.80;2.03;;;15.70;1.00;;;;;;4824152;29;20042;-37
2022/11/23 10:29:38;;;;;;;2.90;1.63;;;15.70;1.00;;;;;;4824257;29;20116;-37
2022/11/23 10:32:23;;;;;;;4.53;1.25;;;15.70;1.00;;;;;;4824124;29;20107;-37
2022/11/23 10:35:13;;;;;;;3.38;1.35;;;15.80;1.00;;;;;;4824178;29;20065;-37
2022/11/23 10:37:41;;;;;;;7.80;1.30;;;15.80;1.00;;;;;;4824023;29;20506;-37
2022/11/23 10:40:15;;;;;;;3.70;1.25;;;15.80;1.00;;;;;;4822798;29;20050;-37
2022/11/23 10:42:48;;;;;;;3.10;0.95;;;15.80;1.00;;;;;;4823702;29;20099;-37
2022/11/23 10:45:24;;;;;;;4.05;1.27;;;15.80;1.00;;;;;;4823945;29;20491;-37
2022/11/23 10:47:58;;;;;;;3.30;1.05;;;15.80;1.00;;;;;;4823689;29;20054;-37
2022/11/23 10:50:28;;;;;;;4.15;1.23;;;15.90;1.00;;;;;;4823906;29;20058;-37
2022/11/23 10:53:01;;;;;;;5.60;1.42;;;15.80;1.00;;;;;;4823729;29;20089;-37
2022/11/23 10:55:29;;;;;;;6.23;1.43;;;15.90;1.00;;;;;;4823897;29;20050;-37
2022/11/23 10:57:57;;;;;;;2.38;1.27;;;15.80;1.00;;;;;;4807382;29;20062;-37
2022/11/23 11:00:26;;;;;;;3.40;1.45;;;15.90;1.00;;;;;;4823707;29;20054;-37
2022/11/23 11:02:58;;;;;;;2.47;1.40;;;15.90;1.00;;;;;;4822657;29;20051;-37
2022/11/23 11:05:36;;;;;;;4.32;1.50;;;15.90;1.00;;;;;;4807337;29;20136;-37
2022/11/23 11:08:29;;;;;;;5.57;1.45;;;15.90;1.00;;;;;;4823610;29;20046;-37
2022/11/23 11:10:57;;;;;;;3.77;1.40;;;15.90;1.00;;;;;;4823642;29;20068;-37
2022/11/23 11:13:45;;;;;;;3.42;1.27;;;15.90;1.00;;;;;;4823316;29;20279;-37
2022/11/23 11:16:25;;;;;;;1.70;0.93;;;15.90;1.00;;;;;;4823591;29;20391;-37
2022/11/23 11:18:52;;;;;;;6.28;1.10;;;15.90;1.00;;;;;;4823621;29;20053;-37
2022/11/23 11:21:22;;;;;;;2.55;1.05;;;15.90;1.00;;;;;;4823306;29;20103;-37
2022/11/23 11:23:56;;;;;;;2.35;1.80;;;15.90;1.00;;;;;;4823172;29;20491;-37
2022/11/23 11:26:25;;;;;;;4.15;1.95;;;15.90;1.00;;;;;;4823449;29;20039;-37
2022/11/23 11:29:01;;;;;;;5.68;1.45;;;15.90;1.00;;;;;;4822267;29;20070;-37
2022/11/23 11:31:36;;;;;;;2.72;1.45;;;15.90;1.00;;;;;;4823372;29;20058;-37
2022/11/23 11:34:35;;;;;;;4.68;1.60;;;15.90;1.00;;;;;;4823070;29;20387;-37
2022/11/23 11:37:20;;;;;;;9.75;2.58;;;15.90;1.00;;;;;;4821274;29;20424;-37
2022/11/23 11:40:25;;;;;;;4.90;1.20;;;15.90;1.00;;;;;;4823221;29;20099;-37
2022/11/23 11:43:14;;;;;;;3.17;1.27;;;15.90;1.00;;;;;;4796925;29;20477;-37
2022/11/23 11:45:47;;;;;;;4.88;1.60;;;15.90;1.00;;;;;;4823121;29;20079;-37
2022/11/23 11:48:46;;;;;;;2.95;1.00;;;15.90;1.00;;;;;;4823100;29;20194;-38
2022/11/23 11:51:36;;;;;;;6.57;2.03;;;15.90;1.00;;;;;;4823183;29;20058;-37
2022/11/23 11:54:28;;;;;;;2.65;0.98;;;15.90;1.00;;;;;;4805035;29;20066;-38
2022/11/23 11:57:01;;;;;;;3.72;1.35;;;15.90;1.00;;;;;;4823000;29;20043;-37
2022/11/23 11:59:33;;;;;;;4.35;1.35;;;15.90;1.00;;;;;;4822979;29;20081;-37
2022/11/23 12:02:23;;;;;;;4.93;1.55;;;15.90;1.00;;;;;;4822981;29;20053;-37
2022/11/23 12:05:15;;;;;;;3.15;1.02;;;15.90;1.00;;;;;;4822717;29;20422;-37
2022/11/23 12:08:03;;;;;;;3.60;0.95;;;15.90;1.00;;;;;;4823026;29;20054;-37
2022/11/23 12:10:51;;;;;;;3.60;1.23;;;15.90;1.00;;;;;;4822940;29;20045;-37
2022/11/23 12:13:24;;;;;;;5.85;1.42;;;15.90;1.00;;;;;;4822323;29;20111;-37
2022/11/23 12:16:09;;;;;;;3.05;1.35;;;15.90;1.00;;;;;;4825661;29;20584;-37
2022/11/23 12:18:56;;;;;;;6.15;1.10;;;15.90;1.00;;;;;;4826429;29;20053;-37
2022/11/23 12:21:51;;;;;;;3.22;1.20;;;15.90;1.00;;;;;;4826400;29;20499;-38
2022/11/23 12:24:53;;;;;;;5.00;1.42;;;15.90;1.00;;;;;;4826210;29;20436;-37
2022/11/23 12:27:20;;;;;;;6.90;1.17;;;15.90;1.00;;;;;;4826207;29;20047;-37
2022/11/23 12:30:11;;;;;;;5.65;1.30;;;15.90;1.00;;;;;;4826156;29;20043;-37
2022/11/23 12:33:08;;;;;;;3.10;1.20;;;15.80;1.00;;;;;;4809561;29;20077;-37
2022/11/23 12:36:07;;;;;;;6.28;1.05;;;15.80;1.00;;;;;;4825930;29;20054;-37
2022/11/23 12:38:54;;;;;;;6.30;1.55;;;15.90;1.00;;;;;;4825873;29;20483;-37
2022/11/23 12:41:43;;;;;;;4.05;1.30;;;15.90;1.00;;;;;;4825806;29;20179;-37
2022/11/23 12:44:48;;;;;;;4.65;1.38;;;15.90;1.00;;;;;;4825575;29;20054;-37
2022/11/23 12:47:50;;;;;;;3.30;1.15;;;15.90;1.00;;;;;;4825580;29;20049;-37
2022/11/23 12:50:37;;;;;;;2.47;0.85;;;15.90;1.00;;;;;;4825753;29;20072;-37
2022/11/23 12:53:26;;;;;;;7.03;1.60;;;15.90;1.00;;;;;;4825361;29;20503;-37
2022/11/23 12:56:08;;;;;;;4.53;1.70;;;15.90;1.00;;;;;;4825574;29;20133;-37
2022/11/23 12:58:37;;;;;;;5.22;1.95;;;15.90;1.00;;;;;;4824287;29;20118;-37
2022/11/23 13:01:15;;;;;;;2.42;1.23;;;15.90;1.00;;;;;;4825414;29;20050;-37
2022/11/23 13:04:14;;;;;;;3.40;1.65;;;15.90;1.00;;;;;;4825044;29;20042;-37
2022/11/23 13:07:16;;;;;;;3.55;1.00;;;15.80;1.00;;;;;;4824277;29;20095;-37
2022/11/23 13:10:25;;;;;;;6.68;1.75;;;15.80;1.00;;;;;;4810573;29;20459;-37
2022/11/23 13:13:27;;;;;;;6.07;1.13;;;15.90;1.00;;;;;;4825173;29;20082;-37
2022/11/23 13:16:40;;;;;;;3.90;1.17;;;15.80;1.00;;;;;;4824017;29;20109;-37
2022/11/23 13:19:38;;;;;;;4.72;1.83;;;15.80;1.00;;;;;;4825357;29;20046;-37
2022/11/23 13:22:08;;;;;;;7.32;1.10;;;15.80;1.00;;;;;;4791855;29;20063;-37
2022/11/23 13:24:39;;;;;;;3.60;1.17;;;15.80;1.00;;;;;;4835753;23;20126;-36
2022/11/23 13:27:12;;;;;;;3.58;1.42;;;15.80;1.00;;;;;;4824190;29;20125;-36
2022/11/23 13:29:49;;;;;;;4.32;1.55;;;15.80;1.00;;;;;;4825140;29;20047;-36
2022/11/23 13:32:33;;;;;;;6.78;1.40;;;15.80;1.00;;;;;;4824843;29;20114;-36